createdAt,value
2018-11-07T00:01:57.519Z,16.90
2018-11-07T00:04:25.211Z,17.33
2018-11-07T00:06:52.541Z,15.07
2018-11-07T00:09:20.101Z,17.30
2018-11-07T00:11:47.408Z,17.50
2018-11-07T00:14:14.718Z,16.53
2018-11-07T00:16:42.051Z,16.00
2018-11-07T00:19:09.571Z,17.57
2018-11-07T00:21:37.711Z,16.50
2018-11-07T00:24:05.033Z,17.03
2018-11-07T00:26:32.449Z,17.70
2018-11-07T00:28:59.742Z,16.57
2018-11-07T00:31:27.150Z,17.47
2018-11-07T00:33:54.606Z,16.77
2018-11-07T00:36:22.883Z,17.90
2018-11-07T00:38:50.348Z,17.50
2018-11-07T00:41:17.641Z,17.87
2018-11-07T00:43:44.964Z,18.20
2018-11-07T00:46:12.294Z,18.40
2018-11-07T00:48:39.602Z,17.53
2018-11-07T00:51:07.181Z,16.90
2018-11-07T00:53:34.505Z,16.70
2018-11-07T00:56:02.282Z,17.83
2018-11-07T00:58:30.031Z,18.00
2018-11-07T01:00:57.644Z,19.03
2018-11-07T01:03:25.006Z,17.90
2018-11-07T01:05:52.324Z,17.10
2018-11-07T01:08:19.677Z,16.13
2018-11-07T01:10:46.989Z,15.77
2018-11-07T01:13:14.297Z,16.50
2018-11-07T01:15:41.727Z,17.47
2018-11-07T01:18:09.082Z,17.63
2018-11-07T01:20:36.434Z,17.27
2018-11-07T01:23:05.428Z,16.47
2018-11-07T01:25:32.795Z,18.27
2018-11-07T01:28:00.213Z,16.33
2018-11-07T01:30:28.102Z,16.13
2018-11-07T01:32:55.414Z,16.40
2018-11-07T01:35:22.741Z,16.30
2018-11-07T01:37:50.458Z,15.17
2018-11-07T01:40:17.812Z,15.27
2018-11-07T01:42:45.179Z,14.93
2018-11-07T01:45:13.069Z,14.97
2018-11-07T01:47:40.388Z,16.67
2018-11-07T01:50:08.509Z,15.70
2018-11-07T01:52:35.942Z,14.70
2018-11-07T01:55:03.270Z,14.50
2018-11-07T01:57:30.631Z,13.80
2018-11-07T01:59:58.017Z,14.67
2018-11-07T02:02:25.367Z,15.23
2018-11-07T02:04:52.690Z,15.53
2018-11-07T02:07:20.073Z,13.73
2018-11-07T02:09:47.394Z,15.17
2018-11-07T02:12:14.948Z,14.27
2018-11-07T02:14:42.236Z,14.83
2018-11-07T02:17:09.553Z,15.33
2018-11-07T02:19:36.927Z,16.47
2018-11-07T02:22:04.258Z,15.07
2018-11-07T02:24:31.628Z,15.77
2018-11-07T02:26:59.058Z,14.40
2018-11-07T02:29:26.489Z,15.00
2018-11-07T02:31:53.879Z,15.53
2018-11-07T02:34:21.248Z,15.60
2018-11-07T02:36:48.938Z,14.70
2018-11-07T02:39:16.312Z,15.40
2018-11-07T02:41:43.671Z,14.80
2018-11-07T02:44:12.219Z,14.80
2018-11-07T02:46:39.590Z,14.53
2018-11-07T02:49:06.924Z,15.70
2018-11-07T02:51:34.250Z,16.03
2018-11-07T02:54:02.232Z,15.10
2018-11-07T02:56:29.584Z,16.70
2018-11-07T02:58:57.202Z,14.83
2018-11-07T03:01:24.560Z,14.53
2018-11-07T03:03:51.874Z,14.50
2018-11-07T03:06:19.163Z,14.20
2018-11-07T03:08:46.528Z,14.53
2018-11-07T03:11:13.920Z,14.90
2018-11-07T03:13:41.339Z,14.30
2018-11-07T03:16:09.084Z,14.10
2018-11-07T03:18:36.435Z,15.77
2018-11-07T03:21:03.886Z,16.10
2018-11-07T03:23:31.258Z,16.27
2018-11-07T03:25:58.614Z,14.80
2018-11-07T03:28:25.932Z,14.87
2018-11-07T03:30:53.260Z,16.07
2018-11-07T03:33:20.571Z,16.43
2018-11-07T03:35:47.995Z,16.17
2018-11-07T03:38:15.282Z,15.10
2018-11-07T03:40:42.917Z,16.13
2018-11-07T03:43:10.200Z,15.00
2018-11-07T03:45:43.377Z,14.77
2018-11-07T03:48:10.746Z,14.67
2018-11-07T03:50:38.062Z,16.40
2018-11-07T03:53:05.447Z,15.70
2018-11-07T03:55:32.734Z,15.17
2018-11-07T03:58:00.026Z,14.53
2018-11-07T04:00:27.366Z,16.03
2018-11-07T04:02:54.675Z,14.57
2018-11-07T04:05:22.001Z,15.57
2018-11-07T04:07:49.315Z,15.27
2018-11-07T04:10:17.201Z,15.03
2018-11-07T04:12:44.604Z,14.30
2018-11-07T04:15:11.942Z,13.07
2018-11-07T04:17:39.294Z,13.57
2018-11-07T04:20:07.079Z,14.67
2018-11-07T04:22:34.429Z,14.07
2018-11-07T04:25:02.032Z,14.03
2018-11-07T04:27:29.350Z,15.00
2018-11-07T04:29:56.687Z,13.90
2018-11-07T04:32:24.038Z,12.80
2018-11-07T04:34:51.390Z,13.30
2018-11-07T04:37:18.691Z,11.90
2018-11-07T04:39:46.014Z,13.90
2018-11-07T04:42:13.359Z,12.90
2018-11-07T04:44:40.639Z,13.30
2018-11-07T04:47:08.013Z,11.50
2018-11-07T04:49:35.408Z,12.40
2018-11-07T04:52:02.863Z,11.60
2018-11-07T04:54:30.467Z,11.90
2018-11-07T04:56:58.153Z,11.20
2018-11-07T04:59:25.475Z,12.70
2018-11-07T05:01:52.935Z,12.33
2018-11-07T05:04:20.269Z,12.33
2018-11-07T05:06:47.597Z,12.07
2018-11-07T05:09:14.949Z,12.50
2018-11-07T05:11:42.256Z,12.73
2018-11-07T05:14:09.637Z,11.10
2018-11-07T05:16:36.964Z,12.10
2018-11-07T05:19:04.646Z,11.23
2018-11-07T05:21:32.501Z,11.13
2018-11-07T05:23:59.813Z,12.67
2018-11-07T05:26:27.118Z,12.00
2018-11-07T05:28:54.452Z,12.00
2018-11-07T05:31:22.105Z,11.57
2018-11-07T05:33:49.459Z,11.83
2018-11-07T05:36:16.771Z,11.00
2018-11-07T05:38:44.094Z,9.90
2018-11-07T05:41:11.562Z,10.40
2018-11-07T05:43:39.313Z,11.43
2018-11-07T05:46:07.232Z,10.57
2018-11-07T05:48:34.638Z,10.20
2018-11-07T05:51:01.994Z,10.73
2018-11-07T05:53:29.350Z,9.87
2018-11-07T05:55:56.730Z,10.10
2018-11-07T05:58:24.360Z,10.87
2018-11-07T06:00:51.705Z,12.13
2018-11-07T06:03:19.029Z,12.40
2018-11-07T06:05:46.349Z,12.60
2018-11-07T06:08:13.778Z,13.70
2018-11-07T06:10:41.111Z,14.53
2018-11-07T06:13:08.417Z,14.40
2018-11-07T06:15:35.772Z,14.83
2018-11-07T06:18:03.108Z,13.80
2018-11-07T06:20:30.476Z,13.67
2018-11-07T06:22:57.840Z,13.90
2018-11-07T06:25:25.311Z,15.27
2018-11-07T06:27:52.651Z,14.83
2018-11-07T06:30:20.102Z,15.87
2018-11-07T06:32:47.438Z,15.87
2018-11-07T06:35:14.804Z,16.20
2018-11-07T06:37:42.606Z,13.73
2018-11-07T06:40:12.580Z,14.77
2018-11-07T06:42:40.353Z,14.30
2018-11-07T06:45:08.078Z,14.43
2018-11-07T06:47:35.578Z,16.17
2018-11-07T06:50:03.155Z,14.90
2018-11-07T06:52:30.689Z,14.60
2018-11-07T06:54:58.089Z,14.20
2018-11-07T06:57:25.468Z,14.00
2018-11-07T06:59:52.892Z,15.30
2018-11-07T07:02:20.248Z,15.37
2018-11-07T07:04:47.996Z,14.60
2018-11-07T07:07:15.317Z,15.00
2018-11-07T07:09:42.676Z,15.77
2018-11-07T07:12:10.087Z,16.63
2018-11-07T07:14:37.412Z,16.03
2018-11-07T07:17:04.820Z,15.17
2018-11-07T07:19:32.162Z,15.10
2018-11-07T07:21:59.483Z,14.10
2018-11-07T07:24:26.838Z,13.90
2018-11-07T07:26:54.218Z,14.03
2018-11-07T07:29:21.602Z,11.97
2018-11-07T07:31:48.969Z,11.47
2018-11-07T07:34:16.405Z,11.97
2018-11-07T07:36:43.879Z,10.53
2018-11-07T07:39:11.217Z,9.83
2018-11-07T07:41:38.617Z,10.57
2018-11-07T07:44:06.699Z,9.97
2018-11-07T07:46:34.101Z,9.60
2018-11-07T07:49:01.558Z,10.23
2018-11-07T07:51:28.870Z,10.50
2018-11-07T07:53:56.208Z,10.60
2018-11-07T07:56:23.560Z,9.63
2018-11-07T07:58:50.944Z,10.37
2018-11-07T08:01:18.369Z,7.70
2018-11-07T08:03:45.953Z,10.23
2018-11-07T08:06:13.376Z,8.87
2018-11-07T08:08:40.805Z,8.70
2018-11-07T08:11:08.156Z,8.57
2018-11-07T08:13:35.627Z,8.30
2018-11-07T08:16:02.958Z,9.53
2018-11-07T08:18:30.303Z,9.77
2018-11-07T08:20:57.666Z,11.50
2018-11-07T08:23:25.085Z,10.53
2018-11-07T08:25:52.416Z,11.57
2018-11-07T08:28:19.774Z,10.50
2018-11-07T08:30:47.415Z,11.80
2018-11-07T08:33:14.762Z,10.63
2018-11-07T08:35:42.106Z,11.23
2018-11-07T08:38:09.453Z,11.83
2018-11-07T08:40:36.812Z,10.17
2018-11-07T08:43:04.303Z,8.47
2018-11-07T08:45:31.617Z,9.03
2018-11-07T08:47:59.004Z,9.57
2018-11-07T08:50:26.401Z,10.30
2018-11-07T08:52:53.882Z,9.70
2018-11-07T08:55:22.459Z,9.50
2018-11-07T08:57:49.903Z,9.93
2018-11-07T09:00:18.428Z,8.77
2018-11-07T09:02:46.146Z,8.50
2018-11-07T09:05:14.267Z,8.37
2018-11-07T09:07:42.268Z,9.10
2018-11-07T09:10:11.065Z,9.60
2018-11-07T09:12:38.395Z,8.47
2018-11-07T09:15:06.634Z,9.27
2018-11-07T09:17:34.083Z,9.73
2018-11-07T09:20:01.446Z,9.77
2018-11-07T09:22:28.757Z,8.97
2018-11-07T09:24:56.100Z,8.50
2018-11-07T09:27:23.432Z,9.00
2018-11-07T09:29:50.888Z,6.33
2018-11-07T09:32:18.229Z,6.13
2018-11-07T09:34:45.687Z,5.50
2018-11-07T09:37:12.973Z,6.43
2018-11-07T09:39:40.484Z,6.40
2018-11-07T09:42:07.816Z,6.40
2018-11-07T09:44:35.138Z,6.70
2018-11-07T09:47:02.465Z,6.50
2018-11-07T09:49:29.777Z,6.50
2018-11-07T09:51:57.129Z,6.67
2018-11-07T09:54:24.649Z,6.63
2018-11-07T09:56:52.300Z,7.83
2018-11-07T09:59:20.695Z,8.27
2018-11-07T10:01:48.123Z,7.90
2018-11-07T10:04:15.714Z,7.53
2018-11-07T10:06:43.264Z,7.23
2018-11-07T10:09:11.472Z,7.90
2018-11-07T10:11:39.001Z,7.43
2018-11-07T10:14:06.576Z,6.87
2018-11-07T10:16:33.927Z,7.73
2018-11-07T10:19:01.304Z,6.73
2018-11-07T10:21:28.616Z,7.83
2018-11-07T10:23:56.043Z,7.17
2018-11-07T10:26:23.370Z,8.50
2018-11-07T10:28:50.824Z,8.63
2018-11-07T10:31:18.142Z,8.83
2018-11-07T10:33:45.490Z,9.50
2018-11-07T10:36:12.856Z,9.33
2018-11-07T10:38:40.264Z,7.27
2018-11-07T10:41:07.488Z,8.70
2018-11-07T10:43:35.392Z,7.73
2018-11-07T10:46:02.753Z,7.60
2018-11-07T10:48:30.014Z,6.80
2018-11-07T10:50:57.337Z,6.90
2018-11-07T10:53:24.731Z,6.53
2018-11-07T10:55:52.987Z,6.30
2018-11-07T10:58:20.378Z,7.90
2018-11-07T11:00:52.997Z,6.50
2018-11-07T11:03:25.641Z,5.80
2018-11-07T11:05:53.015Z,6.33
2018-11-07T11:08:20.324Z,6.30
2018-11-07T11:10:47.702Z,6.00
2018-11-07T11:13:15.058Z,6.40
2018-11-07T11:15:42.498Z,5.90
2018-11-07T11:18:09.858Z,6.47
2018-11-07T11:20:37.176Z,6.10
2018-11-07T11:23:04.537Z,6.37
2018-11-07T11:25:31.843Z,6.07
2018-11-07T11:27:59.172Z,5.77
2018-11-07T11:30:26.552Z,6.23
2018-11-07T11:32:53.893Z,6.80
2018-11-07T11:35:21.357Z,6.07
2018-11-07T11:37:48.617Z,6.87
2018-11-07T11:40:15.965Z,8.27
2018-11-07T11:42:44.604Z,9.70
2018-11-07T11:45:14.118Z,10.30
2018-11-07T11:47:42.313Z,9.43
2018-11-07T11:50:11.744Z,8.20
2018-11-07T11:52:39.097Z,9.10
2018-11-07T11:55:06.591Z,8.13
2018-11-07T11:57:34.048Z,6.90
2018-11-07T12:00:02.075Z,7.47
2018-11-07T12:02:29.015Z,7.60
2018-11-07T12:04:56.473Z,7.13
2018-11-07T12:07:24.095Z,5.77
2018-11-07T12:09:51.621Z,6.17
2018-11-07T12:12:18.979Z,6.17
2018-11-07T12:14:46.469Z,7.00
2018-11-07T12:17:13.883Z,8.10
2018-11-07T12:19:41.303Z,8.10
2018-11-07T12:22:08.721Z,7.27
2018-11-07T12:24:36.264Z,7.13
2018-11-07T12:27:03.667Z,7.00
2018-11-07T12:29:31.056Z,7.47
2018-11-07T12:31:58.508Z,6.57
2018-11-07T12:34:25.906Z,8.20
2018-11-07T12:36:53.325Z,7.57
2018-11-07T12:39:20.731Z,7.03
2018-11-07T12:41:48.153Z,6.57
2018-11-07T12:44:15.586Z,5.40
2018-11-07T12:46:43.127Z,6.60
2018-11-07T12:49:10.546Z,6.20
2018-11-07T12:51:38.048Z,6.30
2018-11-07T12:54:05.421Z,6.40
2018-11-07T12:56:32.769Z,5.73
2018-11-07T12:59:00.125Z,4.47
2018-11-07T13:01:27.541Z,5.10
2018-11-07T13:03:54.928Z,4.03
2018-11-07T13:06:22.264Z,3.70
2018-11-07T13:08:50.067Z,5.00
2018-11-07T13:11:17.567Z,4.50
2018-11-07T13:13:44.906Z,4.50
2018-11-07T13:16:12.371Z,4.60
2018-11-07T13:18:39.802Z,4.30
2018-11-07T13:21:07.241Z,5.33
2018-11-07T13:23:34.579Z,5.03
2018-11-07T13:26:02.048Z,4.13
2018-11-07T13:28:29.473Z,4.90
2018-11-07T13:30:56.750Z,4.60
2018-11-07T13:33:24.268Z,5.40
2018-11-07T13:35:51.694Z,4.40
2018-11-07T13:38:19.403Z,4.80
2018-11-07T13:40:46.543Z,4.57
2018-11-07T13:43:14.077Z,4.63
2018-11-07T13:45:41.512Z,5.23
2018-11-07T13:48:09.365Z,4.10
2018-11-07T13:50:36.773Z,3.73
2018-11-07T13:53:04.491Z,3.80
2018-11-07T13:55:31.841Z,3.80
2018-11-07T13:57:59.302Z,3.80
2018-11-07T14:00:26.780Z,4.07
2018-11-07T14:02:54.201Z,3.43
2018-11-07T14:05:21.676Z,3.20
2018-11-07T14:07:48.994Z,3.60
2018-11-07T14:10:19.942Z,3.10
2018-11-07T14:12:47.462Z,3.80
2018-11-07T14:15:14.926Z,3.30
2018-11-07T14:17:42.748Z,3.07
2018-11-07T14:20:10.223Z,2.90
2018-11-07T14:22:37.770Z,3.20
2018-11-07T14:25:05.543Z,3.37
2018-11-07T14:27:32.988Z,3.60
2018-11-07T14:30:00.407Z,3.60
2018-11-07T14:32:28.203Z,3.53
2018-11-07T14:34:55.536Z,3.40
2018-11-07T14:37:22.942Z,3.13
2018-11-07T14:39:50.363Z,3.50
2018-11-07T14:42:17.847Z,3.60
2018-11-07T14:44:45.294Z,3.57
2018-11-07T14:47:12.816Z,3.17
2018-11-07T14:49:40.259Z,3.80
2018-11-07T14:52:07.968Z,3.23
2018-11-07T14:54:35.389Z,3.07
2018-11-07T14:57:02.904Z,3.67
2018-11-07T14:59:30.745Z,3.10
2018-11-07T15:01:58.145Z,3.50
2018-11-07T15:04:25.583Z,3.53
2018-11-07T15:06:53.103Z,3.67
2018-11-07T15:09:21.097Z,3.47
2018-11-07T15:11:48.608Z,3.70
2018-11-07T15:14:16.128Z,3.90
2018-11-07T15:16:43.749Z,4.00
2018-11-07T15:19:11.374Z,3.80
2018-11-07T15:21:39.045Z,3.93
2018-11-07T15:24:08.964Z,4.60
2018-11-07T15:26:36.653Z,4.17
2018-11-07T15:29:04.507Z,3.80
2018-11-07T15:31:32.540Z,4.00
2018-11-07T15:34:01.047Z,4.47
2018-11-07T15:36:29.495Z,3.77
2018-11-07T15:38:57.376Z,3.80
2018-11-07T15:44:26.542Z,3.80
2018-11-07T15:46:53.895Z,3.70
2018-11-07T15:49:21.252Z,4.10
2018-11-07T15:51:52.884Z,4.33
2018-11-07T15:54:20.276Z,4.67
2018-11-07T15:56:47.717Z,4.87
2018-11-07T15:59:15.112Z,5.13
2018-11-07T16:01:42.435Z,4.67
2018-11-07T16:04:09.752Z,5.70
2018-11-07T16:06:37.089Z,5.43
2018-11-07T16:09:06.444Z,5.23
2018-11-07T16:11:33.844Z,6.13
2018-11-07T16:14:01.195Z,5.20
2018-11-07T16:16:28.841Z,6.00
2018-11-07T16:18:56.732Z,5.60
2018-11-07T16:21:24.068Z,5.83
2018-11-07T16:23:51.512Z,5.37
2018-11-07T16:26:18.784Z,5.60
2018-11-07T16:28:46.208Z,4.90
2018-11-07T16:31:13.577Z,6.10
2018-11-07T16:33:41.618Z,5.13
2018-11-07T16:36:08.981Z,5.80
2018-11-07T16:38:36.460Z,5.80
2018-11-07T16:41:03.875Z,5.00
2018-11-07T16:43:31.230Z,6.20
2018-11-07T16:45:58.581Z,6.07
2018-11-07T16:48:25.935Z,6.03
2018-11-07T16:50:53.223Z,6.33
2018-11-07T16:53:20.608Z,5.97
2018-11-07T16:55:47.968Z,6.10
2018-11-07T16:58:15.349Z,5.87
2018-11-07T17:00:43.189Z,6.00
2018-11-07T17:03:10.533Z,6.07
2018-11-07T17:05:37.822Z,5.30
2018-11-07T17:08:05.171Z,5.70
2018-11-07T17:10:32.553Z,5.70
2018-11-07T17:12:59.925Z,6.03
2018-11-07T17:15:27.740Z,6.43
2018-11-07T17:17:55.124Z,6.63
2018-11-07T17:20:22.463Z,6.60
2018-11-07T17:22:49.826Z,6.63
2018-11-07T17:25:18.569Z,6.63
2018-11-07T17:27:46.004Z,7.10
2018-11-07T17:30:14.548Z,6.70
2018-11-07T17:32:42.268Z,7.03
2018-11-07T17:35:11.301Z,6.40
2018-11-07T17:37:38.651Z,6.47
2018-11-07T17:40:08.078Z,6.17
2018-11-07T17:42:35.523Z,6.23
2018-11-07T17:45:02.938Z,6.10
2018-11-07T17:47:30.276Z,6.40
2018-11-07T17:49:57.694Z,6.20
2018-11-07T17:52:25.035Z,5.97
2018-11-07T17:54:52.498Z,5.83
2018-11-07T17:57:19.837Z,5.93
2018-11-07T17:59:47.162Z,6.30
2018-11-07T18:02:14.568Z,5.93
2018-11-07T18:04:42.050Z,6.30
2018-11-07T18:07:09.404Z,5.70
2018-11-07T18:09:37.278Z,5.67
2018-11-07T18:12:04.834Z,5.77
2018-11-07T18:14:32.139Z,5.30
2018-11-07T18:16:59.482Z,5.90
2018-11-07T18:19:26.887Z,6.17
2018-11-07T18:21:54.394Z,6.27
2018-11-07T18:24:21.730Z,5.80
2018-11-07T18:26:49.079Z,7.27
2018-11-07T18:29:16.502Z,6.93
2018-11-07T18:31:43.988Z,6.60
2018-11-07T18:34:11.617Z,7.43
2018-11-07T18:36:38.975Z,6.80
2018-11-07T18:39:08.164Z,7.17
2018-11-07T18:41:35.610Z,6.30
2018-11-07T18:44:03.266Z,5.70
2018-11-07T18:46:32.070Z,6.77
2018-11-07T18:48:59.447Z,6.97
2018-11-07T18:51:26.827Z,7.30
2018-11-07T18:53:54.163Z,6.70
2018-11-07T18:56:21.538Z,6.97
2018-11-07T18:58:48.985Z,6.73
2018-11-07T19:01:16.197Z,7.43
2018-11-07T19:03:43.624Z,7.40
2018-11-07T19:06:11.168Z,7.00
2018-11-07T19:08:38.693Z,8.23
2018-11-07T19:11:06.096Z,7.37
2018-11-07T19:13:33.443Z,10.93
2018-11-07T19:16:00.937Z,10.70
2018-11-07T19:18:28.356Z,10.20
2018-11-07T19:20:55.785Z,10.90
2018-11-07T19:23:23.169Z,9.80
2018-11-07T19:25:50.555Z,8.57
2018-11-07T19:28:17.938Z,9.97
2018-11-07T19:30:45.267Z,8.30
2018-11-07T19:33:12.659Z,9.20
2018-11-07T19:35:40.013Z,9.57
2018-11-07T19:38:07.349Z,8.90
2018-11-07T19:40:34.780Z,9.10
2018-11-07T19:43:02.221Z,10.10
2018-11-07T19:45:29.666Z,9.93
2018-11-07T19:47:57.030Z,9.57
2018-11-07T19:50:24.367Z,8.80
2018-11-07T19:52:52.115Z,7.33
2018-11-07T19:55:20.933Z,7.33
2018-11-07T19:57:49.261Z,7.30
2018-11-07T20:00:17.289Z,8.47
2018-11-07T20:02:45.654Z,8.90
2018-11-07T20:05:13.077Z,7.83
2018-11-07T20:07:40.426Z,8.10
2018-11-07T20:10:12.945Z,8.53
2018-11-07T20:12:40.275Z,9.23
2018-11-07T20:15:08.634Z,7.83
2018-11-07T20:17:36.115Z,8.73
2018-11-07T20:20:03.917Z,8.47
2018-11-07T20:22:31.609Z,8.97
2018-11-07T20:24:58.979Z,8.30
2018-11-07T20:27:26.351Z,7.80
2018-11-07T20:29:53.718Z,8.20
2018-11-07T20:32:21.141Z,7.73
2018-11-07T20:34:48.561Z,7.87
2018-11-07T20:37:15.944Z,7.83
2018-11-07T20:39:43.350Z,8.20
2018-11-07T20:42:10.765Z,7.40
2018-11-07T20:44:38.099Z,8.10
2018-11-07T20:47:05.544Z,7.40
2018-11-07T20:49:32.873Z,7.40
2018-11-07T20:52:00.377Z,7.73
2018-11-07T20:54:27.703Z,8.20
2018-11-07T20:56:55.163Z,7.83
2018-11-07T20:59:22.553Z,6.93
2018-11-07T21:01:50.032Z,8.50
2018-11-07T21:04:17.317Z,8.80
2018-11-07T21:06:44.677Z,9.00
2018-11-07T21:09:12.262Z,8.27
2018-11-07T21:11:39.624Z,9.07
2018-11-07T21:14:07.018Z,8.27
2018-11-07T21:16:34.506Z,9.53
2018-11-07T21:19:01.972Z,8.67
2018-11-07T21:21:29.342Z,8.50
2018-11-07T21:23:56.738Z,9.40
2018-11-07T21:26:24.208Z,9.00
2018-11-07T21:28:51.941Z,9.03
2018-11-07T21:31:19.572Z,8.97
2018-11-07T21:33:47.025Z,8.47
2018-11-07T21:36:14.392Z,9.07
2018-11-07T21:38:41.805Z,8.70
2018-11-07T21:41:09.393Z,8.33
2018-11-07T21:43:36.937Z,8.30
2018-11-07T21:46:04.285Z,7.87
2018-11-07T21:48:31.814Z,8.03
2018-11-07T21:50:59.208Z,8.80
2018-11-07T21:53:27.013Z,8.37
2018-11-07T21:55:54.486Z,8.67
2018-11-07T21:58:21.851Z,7.27
2018-11-07T22:00:49.184Z,8.43
2018-11-07T22:03:16.772Z,6.80
2018-11-07T22:05:44.076Z,6.70
2018-11-07T22:08:11.460Z,7.00
2018-11-07T22:10:38.820Z,7.80
2018-11-07T22:13:06.284Z,7.33
2018-11-07T22:15:33.572Z,7.00
2018-11-07T22:18:00.920Z,8.27
2018-11-07T22:20:28.249Z,7.57
2018-11-07T22:22:55.748Z,6.60
2018-11-07T22:25:23.045Z,6.27
2018-11-07T22:27:50.353Z,7.10
2018-11-07T22:30:18.203Z,6.23
2018-11-07T22:32:45.662Z,5.93
2018-11-07T22:35:14.292Z,6.77
2018-11-07T22:37:42.300Z,7.13
2018-11-07T22:40:10.924Z,7.20
2018-11-07T22:42:38.365Z,6.83
2018-11-07T22:45:05.885Z,7.37
2018-11-07T22:47:33.175Z,7.00
2018-11-07T22:50:00.630Z,7.20
2018-11-07T22:52:28.283Z,7.83
2018-11-07T22:54:55.636Z,7.90
2018-11-07T22:57:22.959Z,7.10
2018-11-07T22:59:50.314Z,8.83
2018-11-07T23:02:17.658Z,7.97
2018-11-07T23:04:45.057Z,7.87
2018-11-07T23:07:12.428Z,8.30
2018-11-07T23:09:39.964Z,7.93
2018-11-07T23:12:07.371Z,7.37
2018-11-07T23:14:34.724Z,8.20
2018-11-07T23:17:02.043Z,7.43
2018-11-07T23:19:29.495Z,7.27
2018-11-07T23:21:56.918Z,7.03
2018-11-07T23:24:24.274Z,7.40
2018-11-07T23:26:51.730Z,7.40
2018-11-07T23:29:19.020Z,7.93
2018-11-07T23:31:46.820Z,7.60
2018-11-07T23:34:14.198Z,7.80
2018-11-07T23:36:41.516Z,8.40
2018-11-07T23:39:11.295Z,7.90
2018-11-07T23:41:38.671Z,8.20
2018-11-07T23:44:06.027Z,8.90
2018-11-07T23:46:33.404Z,8.73
2018-11-07T23:49:00.736Z,7.67
2018-11-07T23:51:28.155Z,8.70
2018-11-07T23:53:55.585Z,8.13
2018-11-07T23:56:22.921Z,8.30
2018-11-07T23:58:50.284Z,7.80
